Time;durP1;ratioP1;P1;durP2;ratioP2;P2;SDS_P1;SDS_P2;PMS_P1;PMS_P2;Temp;Humidity;BMP_temperature;BMP_pressure;BME280_temperature;BME280_humidity;BME280_pressure;Samples;Min_cycle;Max_cycle;Signal;HPM_P1;HPM_P2
2022/06/24 00:02:00;;;;;;;;;;;;;;;-146.27;100.00;64033.13;5091445;28;20269;-38
2022/06/24 00:04:26;;;;;;;;;;;;;;;-146.27;100.00;64033.13;5089967;28;19912;-38
2022/06/24 00:06:52;;;;;;;;;;;;;;;-146.27;100.00;64033.13;5091869;28;19919;-38
2022/06/24 00:09:17;;;;;;;;;;;;;;;-146.27;100.00;64033.13;5091953;28;19912;-38
2022/06/24 00:11:43;;;;;;;;;;;;;;;-146.27;100.00;64033.13;5091565;28;20006;-38
2022/06/24 00:14:10;;;;;;;;;;;;;;;-146.27;100.00;64033.13;5091433;28;19916;-38
2022/06/24 00:16:56;;;;;;;;;;;;;;;-146.27;100.00;64033.13;5091607;28;19916;-38
2022/06/24 00:19:23;;;;;;;;;;;;;;;-146.27;100.00;64033.13;5091495;28;20304;-38
2022/06/24 00:21:57;;;;;;;;;;;;;;;-146.27;100.00;64033.13;5089333;28;19912;-38
2022/06/24 00:24:22;;;;;;;;;;;;;;;-146.27;100.00;64033.13;5090210;28;19912;-38
2022/06/24 00:26:48;;;;;;;;;;;;;;;-146.27;100.00;64033.13;5090756;28;19919;-37
2022/06/24 00:29:16;;;;;;;;;;;;;;;-146.27;100.00;64033.13;5091433;28;20428;-38
2022/06/24 00:31:42;;;;;;;;;;;;;;;-146.27;100.00;64033.13;5091038;28;19912;-38
2022/06/24 00:34:25;;;;;;;;;;;;;;;-146.27;100.00;64033.13;5091619;28;19916;-38
2022/06/24 00:36:50;;;;;;;;;;;;;;;-146.27;100.00;64033.13;5091081;28;19924;-38
2022/06/24 00:39:16;;;;;;;;;;;;;;;-146.27;100.00;64033.13;5091186;28;19922;-37
2022/06/24 00:41:41;;;;;;;;;;;;;;;-146.27;100.00;64033.13;5091445;28;19931;-38
2022/06/24 00:44:09;;;;;;;;;;;;;;;-146.27;100.00;64033.13;5091285;28;19965;-38
2022/06/24 00:46:37;;;;;;;;;;;;;;;-146.27;100.00;64033.13;5090902;28;19912;-38
2022/06/24 00:49:04;;;;;;;;;;;;;;;-146.27;100.00;64033.13;5090957;28;19912;-38
2022/06/24 00:51:33;;;;;;;;;;;;;;;-146.27;100.00;64033.13;5091269;28;19916;-38
2022/06/24 00:54:05;;;;;;;;;;;;;;;-146.27;100.00;64033.13;5091149;28;20406;-36
2022/06/24 00:56:31;;;;;;;;;;;;;;;-146.27;100.00;64033.13;5090771;28;19912;-38
2022/06/24 00:59:17;;;;;;;;;;;;;;;-146.27;100.00;64033.13;5091260;28;20376;-38
2022/06/24 01:01:43;;;;;;;;;;;;;;;-146.27;100.00;64033.13;5090572;28;19920;-38
2022/06/24 01:04:10;;;;;;;;;;;;;;;-146.27;100.00;64033.13;5091024;28;19942;-38
2022/06/24 01:06:36;;;;;;;;;;;;;;;-146.27;100.00;64033.13;5091009;28;19916;-37
2022/06/24 01:09:02;;;;;;;;;;;;;;;-146.27;100.00;64033.13;5090751;28;19923;-38
2022/06/24 01:11:28;;;;;;;;;;;;;;;-146.27;100.00;64033.13;5090868;28;20007;-38
2022/06/24 01:13:54;;;;;;;;;;;;;;;-146.27;100.00;64033.13;5090727;28;19919;-37
2022/06/24 01:16:21;;;;;;;;;;;;;;;-146.27;100.00;64033.13;5090729;28;19912;-38
2022/06/24 01:18:49;;;;;;;;;;;;;;;-146.27;100.00;64033.13;5090545;28;20422;-37
2022/06/24 01:21:28;;;;;;;;;;;;;;;-146.27;100.00;64033.13;5105199;28;20244;-37
2022/06/24 01:24:01;;;;;;;;;;;;;;;-146.27;100.00;64033.13;5110951;28;19950;-37
2022/06/24 01:26:27;;;;;;;;;;;;;;;-146.27;100.00;64033.13;5101916;28;19912;-37
2022/06/24 01:28:52;;;;;;;;;;;;;;;-146.27;100.00;64033.13;5090491;28;19986;-37
2022/06/24 01:31:17;;;;;;;;;;;;;;;-146.27;100.00;64033.13;5090811;28;19938;-38
2022/06/24 01:33:43;;;;;;;;;;;;;;;-146.27;100.00;64033.13;5091071;28;19916;-38
2022/06/24 01:36:08;;;;;;;;;;;;;;;-146.27;100.00;64033.13;5092710;28;19924;-38
2022/06/24 01:38:33;;;;;;;;;;;;;;;-146.27;100.00;64033.13;5094544;28;19919;-37
2022/06/24 01:40:58;;;;;;;;;;;;;;;-146.27;100.00;64033.13;5094647;28;19916;-38
2022/06/24 01:43:24;;;;;;;;;;;;;;;-146.27;100.00;64033.13;5094549;28;19912;-38
2022/06/24 01:45:49;;;;;;;;;;;;;;;-146.27;100.00;64033.13;5094787;28;19916;-38
2022/06/24 01:48:14;;;;;;;;;;;;;;;-146.27;100.00;64033.13;5093368;28;19923;-50
2022/06/24 01:50:39;;;;;;;;;;;;;;;-146.27;100.00;64033.13;5093390;28;19918;-48
2022/06/24 01:53:05;;;;;;;;;;;;;;;-146.27;100.00;64033.13;5093771;28;19912;-51
2022/06/24 01:55:30;;;;;;;;;;;;;;;-146.27;100.00;64033.13;5094154;28;19951;-48
2022/06/24 01:57:55;;;;;;;;;;;;;;;-146.27;100.00;64033.13;5094437;28;19912;-48
2022/06/24 02:00:20;;;;;;;;;;;;;;;-146.27;100.00;64033.13;5094039;28;19919;-49
2022/06/24 02:02:46;;;;;;;;;;;;;;;-146.27;100.00;64033.13;5094034;28;20015;-47
2022/06/24 02:05:11;;;;;;;;;;;;;;;-146.27;100.00;64033.13;5094007;28;19912;-48
2022/06/24 02:07:36;;;;;;;;;;;;;;;-146.27;100.00;64033.13;5093881;28;19916;-48
2022/06/24 02:15:29;;;;;;;;;;;;;;;-146.27;100.00;64033.13;5094325;28;20346;-48
2022/06/24 02:17:55;;;;;;;;;;;;;;;-146.27;100.00;64033.13;5094079;28;19948;-50
2022/06/24 02:20:20;;;;;;;;;;;;;;;-146.27;100.00;64033.13;5101105;28;19912;-47
2022/06/24 02:22:45;;;;;;;;;;;;;;;-146.27;100.00;64033.13;5113887;28;19911;-49
2022/06/24 02:25:11;;;;;;;;;;;;;;;-146.27;100.00;64033.13;5114354;28;20335;-49
2022/06/24 02:27:37;;;;;;;;;;;;;;;-146.27;100.00;64033.13;5114233;28;20518;-47
2022/06/24 02:30:02;;;;;;;;;;;;;;;-146.27;100.00;64033.13;5114354;28;19919;-47
2022/06/24 02:32:27;;;;;;;;;;;;;;;-146.27;100.00;64033.13;5113831;28;19920;-48
2022/06/24 02:34:53;;;;;;;;;;;;;;;-146.27;100.00;64033.13;5114213;28;20367;-51
2022/06/24 02:37:18;;;;;;;;;;;;;;;-146.27;100.00;64033.13;5114027;28;19919;-48
2022/06/24 02:39:44;;;;;;;;;;;;;;;-146.27;100.00;64033.13;5114325;28;20002;-50
2022/06/24 02:42:09;;;;;;;;;;;;;;;-146.27;100.00;64033.13;5113677;28;19958;-49
2022/06/24 02:44:34;;;;;;;;;;;;;;;-146.27;100.00;64033.13;5113668;28;19912;-48
2022/06/24 02:46:59;;;;;;;;;;;;;;;-146.27;100.00;64033.13;5112067;28;20331;-52
2022/06/24 02:49:25;;;;;;;;;;;;;;;-146.27;100.00;64033.13;5114080;28;19918;-51
2022/06/24 02:51:50;;;;;;;;;;;;;;;-146.27;100.00;64033.13;5113311;28;19988;-50
2022/06/24 02:54:15;;;;;;;;;;;;;;;-146.27;100.00;64033.13;5113961;28;19922;-48
2022/06/24 02:56:40;;;;;;;;;;;;;;;-146.27;100.00;64033.13;5114510;28;20388;-47
2022/06/24 02:59:06;;;;;;;;;;;;;;;-146.27;100.00;64033.13;5114620;28;19916;-49
2022/06/24 03:01:31;;;;;;;;;;;;;;;-146.27;100.00;64033.13;5114079;28;20435;-49
2022/06/24 03:03:56;;;;;;;;;;;;;;;-146.27;100.00;64033.13;5113800;28;19912;-48
2022/06/24 03:06:22;;;;;;;;;;;;;;;-146.27;100.00;64033.13;5114029;28;20358;-46
2022/06/24 03:08:47;;;;;;;;;;;;;;;-146.27;100.00;64033.13;5113822;28;19915;-47
2022/06/24 03:11:13;;;;;;;;;;;;;;;-146.27;100.00;64033.13;5095890;28;19912;-47
2022/06/24 03:13:39;;;;;;;;;;;;;;;-146.27;100.00;64033.13;5093423;28;20276;-45
2022/06/24 03:16:04;;;;;;;;;;;;;;;-146.27;100.00;64033.13;5093232;28;19923;-37
2022/06/24 03:18:29;;;;;;;;;;;;;;;-146.27;100.00;64033.13;5093659;28;19912;-37
2022/06/24 03:20:55;;;;;;;;;;;;;;;-146.27;100.00;64033.13;5105243;28;19912;-38
2022/06/24 03:23:20;;;;;;;;;;;;;;;-146.27;100.00;64033.13;5114166;28;20006;-36
2022/06/24 03:25:46;;;;;;;;;;;;;;;-146.27;100.00;64033.13;5113657;28;19919;-37
2022/06/24 03:28:12;;;;;;;;;;;;;;;-146.27;100.00;64033.13;5113885;28;20347;-37
2022/06/24 03:30:37;;;;;;;;;;;;;;;-146.27;100.00;64033.13;5113455;28;19961;-37
2022/06/24 03:33:02;;;;;;;;;;;;;;;-146.27;100.00;64033.13;5113094;28;19961;-36
2022/06/24 03:35:28;;;;;;;;;;;;;;;-146.27;100.00;64033.13;5113193;28;19924;-37
2022/06/24 03:37:53;;;;;;;;;;;;;;;-146.27;100.00;64033.13;5113405;28;19919;-38
2022/06/24 03:40:19;;;;;;;;;;;;;;;-146.27;100.00;64033.13;5113721;27;19916;-37
2022/06/24 03:42:44;;;;;;;;;;;;;;;-146.27;100.00;64033.13;5113013;28;19912;-37
2022/06/24 03:45:09;;;;;;;;;;;;;;;-146.27;100.00;64033.13;5112944;28;19916;-38
2022/06/24 03:47:35;;;;;;;;;;;;;;;-146.27;100.00;64033.13;5112263;28;20345;-38
2022/06/24 03:50:00;;;;;;;;;;;;;;;-146.27;100.00;64033.13;5112543;28;20348;-38
2022/06/24 03:52:25;;;;;;;;;;;;;;;-146.27;100.00;64033.13;5091881;28;20441;-37
2022/06/24 03:54:51;;;;;;;;;;;;;;;-146.27;100.00;64033.13;5093805;28;20403;-36
2022/06/24 03:57:16;;;;;;;;;;;;;;;-146.27;100.00;64033.13;5092715;28;19916;-37
2022/06/24 03:59:41;;;;;;;;;;;;;;;-146.27;100.00;64033.13;5091014;28;19912;-37
2022/06/24 04:02:07;;;;;;;;;;;;;;;-146.27;100.00;64033.13;5091810;28;19926;-36
2022/06/24 04:04:32;;;;;;;;;;;;;;;-146.27;100.00;64033.13;5092950;28;19935;-36
2022/06/24 04:06:57;;;;;;;;;;;;;;;-146.27;100.00;64033.13;5091299;28;19944;-37
2022/06/24 04:09:23;;;;;;;;;;;;;;;-146.27;100.00;64033.13;5090632;28;19915;-36
2022/06/24 04:11:48;;;;;;;;;;;;;;;-146.27;100.00;64033.13;5091640;28;20007;-47
2022/06/24 04:14:13;;;;;;;;;;;;;;;-146.27;100.00;64033.13;5091697;28;19912;-48
2022/06/24 04:16:39;;;;;;;;;;;;;;;-146.27;100.00;64033.13;5084248;28;19943;-48
2022/06/24 04:19:04;;;;;;;;;;;;;;;-146.27;100.00;64033.13;5084798;28;20589;-48
2022/06/24 04:21:31;;;;;;;;;;;;;;;-146.27;100.00;64033.13;5104609;28;19915;-48
2022/06/24 04:23:56;;;;;;;;;;;;;;;-146.27;100.00;64033.13;5111412;28;20025;-47
2022/06/24 04:26:21;;;;;;;;;;;;;;;-146.27;100.00;64033.13;5111147;28;20002;-38
2022/06/24 04:28:49;;;;;;;;;;;;;;;-146.27;100.00;64033.13;5110845;28;19935;-48
2022/06/24 04:31:14;;;;;;;;;;;;;;;-146.27;100.00;64033.13;5110913;28;19916;-49
2022/06/24 04:33:39;;;;;;;;;;;;;;;-146.27;100.00;64033.13;5111191;28;19923;-48
2022/06/24 04:36:12;;;;;;;;;;;;;;;-146.27;100.00;64033.13;5110102;28;19924;-48
2022/06/24 04:38:37;;;;;;;;;;;;;;;-146.27;100.00;64033.13;5108198;28;19956;-46
2022/06/24 04:41:09;;;;;;;;;;;;;;;-146.27;100.00;64033.13;5108495;28;19911;-49
2022/06/24 04:43:34;;;;;;;;;;;;;;;-146.27;100.00;64033.13;5109082;28;19922;-49
2022/06/24 04:46:00;;;;;;;;;;;;;;;-146.27;100.00;64033.13;5108972;28;19920;-47
2022/06/24 04:48:26;;;;;;;;;;;;;;;-146.27;100.00;64033.13;5109046;28;19916;-50
2022/06/24 04:50:51;;;;;;;;;;;;;;;-146.27;100.00;64033.13;5109430;28;20021;-47
2022/06/24 04:53:16;;;;;;;;;;;;;;;-146.27;100.00;64033.13;5110549;28;20283;-49
2022/06/24 04:55:41;;;;;;;;;;;;;;;-146.27;100.00;64033.13;5111319;28;19911;-50
2022/06/24 04:58:07;;;;;;;;;;;;;;;-146.27;100.00;64033.13;5111744;28;19912;-49
2022/06/24 05:00:32;;;;;;;;;;;;;;;-146.27;100.00;64033.13;5111760;28;19927;-47
2022/06/24 05:02:57;;;;;;;;;;;;;;;-146.27;100.00;64033.13;5108267;28;19911;-50
2022/06/24 05:05:23;;;;;;;;;;;;;;;-146.27;100.00;64033.13;5090316;28;19912;-51
2022/06/24 05:07:48;;;;;;;;;;;;;;;-146.27;100.00;64033.13;5090976;28;19923;-48
2022/06/24 05:10:14;;;;;;;;;;;;;;;-146.27;100.00;64033.13;5091213;28;19955;-51
2022/06/24 05:12:39;;;;;;;;;;;;;;;-146.27;100.00;64033.13;5090559;28;19916;-48
2022/06/24 05:15:04;;;;;;;;;;;;;;;-146.27;100.00;64033.13;5091119;28;19964;-47
2022/06/24 05:17:30;;;;;;;;;;;;;;;-146.27;100.00;64033.13;5090645;28;19998;-47
2022/06/24 05:19:55;;;;;;;;;;;;;;;-146.27;100.00;64033.13;5094110;28;19912;-50
2022/06/24 05:22:20;;;;;;;;;;;;;;;-146.27;100.00;64033.13;5110601;28;19968;-49
2022/06/24 05:24:46;;;;;;;;;;;;;;;-146.27;100.00;64033.13;5111023;28;20307;-48
2022/06/24 05:27:11;;;;;;;;;;;;;;;-146.27;100.00;64033.13;5111100;28;19915;-48
2022/06/24 05:29:36;;;;;;;;;;;;;;;-146.27;100.00;64033.13;5111441;28;19912;-48
2022/06/24 05:32:02;;;;;;;;;;;;;;;-146.27;100.00;64033.13;5111076;28;19912;-51
2022/06/24 05:34:27;;;;;;;;;;;;;;;-146.27;100.00;64033.13;5110705;28;20324;-48
2022/06/24 05:36:52;;;;;;;;;;;;;;;-146.27;100.00;64033.13;5111068;28;20366;-49
2022/06/24 05:39:18;;;;;;;;;;;;;;;-146.27;100.00;64033.13;5110698;28;20364;-49
2022/06/24 05:41:43;;;;;;;;;;;;;;;-146.27;100.00;64033.13;5110520;28;20011;-50
2022/06/24 05:44:09;;;;;;;;;;;;;;;-146.27;100.00;64033.13;5110994;28;19912;-52
2022/06/24 05:46:34;;;;;;;;;;;;;;;-146.27;100.00;64033.13;5110625;28;19998;-47
2022/06/24 05:48:59;;;;;;;;;;;;;;;-146.27;100.00;64033.13;5111057;28;19920;-37
2022/06/24 05:51:25;;;;;;;;;;;;;;;-146.27;100.00;64033.13;5110744;28;19919;-37
2022/06/24 05:56:34;;;;;;;;;;;;;;;-146.27;100.00;64033.13;5110865;28;19931;-38
2022/06/24 05:58:59;;;;;;;;;;;;;;;-146.27;100.00;64033.13;5111233;28;20306;-38
2022/06/24 06:01:25;;;;;;;;;;;;;;;-146.27;100.00;64033.13;5110762;28;19912;-36
2022/06/24 06:03:51;;;;;;;;;;;;;;;-146.27;100.00;64033.13;5110311;28;19912;-35
2022/06/24 06:06:16;;;;;;;;;;;;;;;-146.27;100.00;64033.13;5110299;28;19990;-37
2022/06/24 06:08:41;;;;;;;;;;;;;;;-146.27;100.00;64033.13;5110197;28;20105;-37
2022/06/24 06:11:13;;;;;;;;;;;;;;;-146.27;100.00;64033.13;5110148;28;20405;-37
2022/06/24 06:13:39;;;;;;;;;;;;;;;-146.27;100.00;64033.13;5110502;28;20370;-37
2022/06/24 06:16:05;;;;;;;;;;;;;;;-146.27;100.00;64033.13;5110224;28;19918;-37
2022/06/24 06:18:30;;;;;;;;;;;;;;;-146.27;100.00;64033.13;5110881;28;20357;-37
2022/06/24 06:21:06;;;;;;;;;;;;;;;-146.27;100.00;64033.13;5097926;28;20383;-38
2022/06/24 06:23:31;;;;;;;;;;;;;;;-146.27;100.00;64033.13;5093307;28;19985;-38
2022/06/24 06:26:00;;;;;;;;;;;;;;;-146.27;100.00;64033.13;5093695;28;20379;-37
2022/06/24 06:28:26;;;;;;;;;;;;;;;-146.27;100.00;64033.13;5093240;28;19985;-37
2022/06/24 06:30:51;;;;;;;;;;;;;;;-146.27;100.00;64033.13;5093335;28;20286;-36
2022/06/24 06:33:17;;;;;;;;;;;;;;;-146.27;100.00;64033.13;5093793;28;19948;-37
2022/06/24 06:35:42;;;;;;;;;;;;;;;-146.27;100.00;64033.13;5092788;28;20400;-37
2022/06/24 06:38:07;;;;;;;;;;;;;;;-146.27;100.00;64033.13;5093653;28;19937;-37
2022/06/24 06:40:35;;;;;;;;;;;;;;;-146.27;100.00;64033.13;5092527;28;21609;-37
2022/06/24 06:43:01;;;;;;;;;;;;;;;-146.27;100.00;64033.13;5092803;28;20030;-36
2022/06/24 06:45:26;;;;;;;;;;;;;;;-146.27;100.00;64033.13;5093038;28;19912;-37
2022/06/24 06:47:52;;;;;;;;;;;;;;;-146.27;100.00;64033.13;5093200;28;19966;-37
2022/06/24 06:50:17;;;;;;;;;;;;;;;-146.27;100.00;64033.13;5092744;28;20295;-37
2022/06/24 06:52:42;;;;;;;;;;;;;;;-146.27;100.00;64033.13;5092861;28;19919;-37
2022/06/24 06:55:08;;;;;;;;;;;;;;;-146.27;100.00;64033.13;5093217;28;19966;-37
2022/06/24 06:57:33;;;;;;;;;;;;;;;-146.27;100.00;64033.13;5092417;28;19964;-38
2022/06/24 06:59:58;;;;;;;;;;;;;;;-146.27;100.00;64033.13;5092712;28;19969;-38
2022/06/24 07:02:23;;;;;;;;;;;;;;;-146.27;100.00;64033.13;5093522;28;19938;-37
2022/06/24 07:04:49;;;;;;;;;;;;;;;-146.27;100.00;64033.13;5095179;28;19947;-38
2022/06/24 07:07:14;;;;;;;;;;;;;;;-146.27;100.00;64033.13;5109834;28;19923;-37
2022/06/24 07:09:40;;;;;;;;;;;;;;;-146.27;100.00;64033.13;5108160;28;19916;-37
2022/06/24 07:12:05;;;;;;;;;;;;;;;-146.27;100.00;64033.13;5100149;28;20302;-38
2022/06/24 07:14:31;;;;;;;;;;;;;;;-146.27;100.00;64033.13;5101079;28;20482;-38
2022/06/24 07:16:56;;;;;;;;;;;;;;;-146.27;100.00;64033.13;5107351;28;19912;-38
2022/06/24 07:19:23;;;;;;;;;;;;;;;-146.27;100.00;64033.13;5109233;28;20055;-38
2022/06/24 07:21:48;;;;;;;;;;;;;;;-146.27;100.00;64033.13;5111030;28;19912;-37
2022/06/24 07:24:13;;;;;;;;;;;;;;;-146.27;100.00;64033.13;5103577;28;19985;-37
2022/06/24 07:26:39;;;;;;;;;;;;;;;-146.27;100.00;64033.13;5105333;28;20381;-37
2022/06/24 07:29:04;;;;;;;;;;;;;;;-146.27;100.00;64033.13;5096140;28;20371;-37
2022/06/24 07:31:29;;;;;;;;;;;;;;;-146.27;100.00;64033.13;5107052;28;19923;-38
2022/06/24 07:33:55;;;;;;;;;;;;;;;-146.27;100.00;64033.13;5097623;28;19919;-38
2022/06/24 07:36:20;;;;;;;;;;;;;;;-146.27;100.00;64033.13;5101578;28;19931;-38
2022/06/24 07:38:45;;;;;;;;;;;;;;;-146.27;100.00;64033.13;5106159;28;19916;-38
2022/06/24 07:41:11;;;;;;;;;;;;;;;-146.27;100.00;64033.13;5095165;28;19967;-38
2022/06/24 07:43:37;;;;;;;;;;;;;;;-146.27;100.00;64033.13;5107977;28;19916;-37
2022/06/24 07:46:02;;;;;;;;;;;;;;;-146.27;100.00;64033.13;5098645;28;19991;-38
2022/06/24 07:48:28;;;;;;;;;;;;;;;-146.27;100.00;64033.13;5101208;28;20468;-37
2022/06/24 07:50:53;;;;;;;;;;;;;;;-146.27;100.00;64033.13;5105563;28;19918;-36
2022/06/24 07:53:18;;;;;;;;;;;;;;;-146.27;100.00;64033.13;5095427;28;19912;-36
2022/06/24 07:58:27;;;;;;;;;;;;;;;-146.27;100.00;64033.13;5092174;28;20030;-38
2022/06/24 08:00:53;;;;;;;;;;;;;;;-146.27;100.00;64033.13;5106581;28;20014;-37
2022/06/24 08:03:18;;;;;;;;;;;;;;;-146.27;100.00;64033.13;5094856;28;19919;-38
2022/06/24 08:05:43;;;;;;;;;;;;;;;-146.27;100.00;64033.13;5106963;28;19959;-37
2022/06/24 08:08:09;;;;;;;;;;;;;;;-146.27;100.00;64033.13;5091891;28;20021;-37
2022/06/24 08:10:34;;;;;;;;;;;;;;;-146.27;100.00;64033.13;5090324;28;19918;-37
2022/06/24 08:13:00;;;;;;;;;;;;;;;-146.27;100.00;64033.13;5091739;28;20010;-37
2022/06/24 08:15:25;;;;;;;;;;;;;;;-146.27;100.00;64033.13;5091101;28;19966;-38
2022/06/24 08:17:50;;;;;;;;;;;;;;;-146.27;100.00;64033.13;5088057;28;19912;-37
2022/06/24 08:20:16;;;;;;;;;;;;;;;-146.27;100.00;64033.13;5097436;28;19999;-37
2022/06/24 08:22:41;;;;;;;;;;;;;;;-146.27;100.00;64033.13;5111497;28;19918;-37
2022/06/24 08:25:06;;;;;;;;;;;;;;;-146.27;100.00;64033.13;5111006;28;20362;-37
2022/06/24 08:27:32;;;;;;;;;;;;;;;-146.27;100.00;64033.13;5111475;28;19916;-38
2022/06/24 08:29:57;;;;;;;;;;;;;;;-146.27;100.00;64033.13;5111423;28;19961;-38
2022/06/24 08:32:23;;;;;;;;;;;;;;;-146.27;100.00;64033.13;5111376;28;20003;-38
2022/06/24 08:34:48;;;;;;;;;;;;;;;-146.27;100.00;64033.13;5111341;28;19942;-37
2022/06/24 08:37:13;;;;;;;;;;;;;;;-146.27;100.00;64033.13;5111037;28;20023;-37
2022/06/24 08:39:39;;;;;;;;;;;;;;;-146.27;100.00;64033.13;5111545;28;20301;-38
2022/06/24 08:42:04;;;;;;;;;;;;;;;-146.27;100.00;64033.13;5111122;28;19912;-38
2022/06/24 08:44:29;;;;;;;;;;;;;;;-146.27;100.00;64033.13;5111022;28;19916;-38
2022/06/24 08:46:55;;;;;;;;;;;;;;;-146.27;100.00;64033.13;5110747;28;19912;-38
2022/06/24 08:49:20;;;;;;;;;;;;;;;-146.27;100.00;64033.13;5111117;28;19922;-38
2022/06/24 08:51:47;;;;;;;;;;;;;;;-146.27;100.00;64033.13;5111157;28;19912;-37
2022/06/24 08:54:14;;;;;;;;;;;;;;;-146.27;100.00;64033.13;5110910;28;19969;-38
2022/06/24 08:56:40;;;;;;;;;;;;;;;-146.27;100.00;64033.13;5097160;28;19923;-36
2022/06/24 08:59:06;;;;;;;;;;;;;;;-146.27;100.00;64033.13;5090830;28;19958;-38
2022/06/24 09:01:37;;;;;;;;;;;;;;;-146.27;100.00;64033.13;5090494;28;19912;-40
2022/06/24 09:04:03;;;;;;;;;;;;;;;-146.27;100.00;64033.13;5090566;28;19912;-37
2022/06/24 09:06:36;;;;;;;;;;;;;;;-146.27;100.00;64033.13;5090897;28;20402;-37
2022/06/24 09:09:01;;;;;;;;;;;;;;;-146.27;100.00;64033.13;5090655;28;19920;-37
2022/06/24 09:11:34;;;;;;;;;;;;;;;-146.27;100.00;64033.13;5090007;28;20007;-38
2022/06/24 09:14:00;;;;;;;;;;;;;;;-146.27;100.00;64033.13;5089267;28;19912;-37
2022/06/24 09:16:25;;;;;;;;;;;;;;;-146.27;100.00;64033.13;5090085;28;19919;-37
2022/06/24 09:18:52;;;;;;;;;;;;;;;-146.27;100.00;64033.13;5089844;28;20281;-37
2022/06/24 09:21:22;;;;;;;;;;;;;;;-146.27;100.00;64033.13;5090510;28;19939;-38
2022/06/24 09:23:52;;;;;;;;;;;;;;;-146.27;100.00;64033.13;5090242;28;19912;-38
2022/06/24 09:26:24;;;;;;;;;;;;;;;-146.27;100.00;64033.13;5088944;28;20081;-37
2022/06/24 09:28:53;;;;;;;;;;;;;;;-146.27;100.00;64033.13;5088032;28;19920;-37
2022/06/24 09:31:23;;;;;;;;;;;;;;;-146.27;100.00;64033.13;5088536;28;20249;-37
2022/06/24 09:33:49;;;;;;;;;;;;;;;-146.27;100.00;64033.13;5088956;28;19991;-37
2022/06/24 09:36:14;;;;;;;;;;;;;;;-146.27;100.00;64033.13;5088572;28;20085;-37
2022/06/24 09:38:56;;;;;;;;;;;;;;;-146.27;100.00;64033.13;5088512;28;20429;-38
2022/06/24 09:41:22;;;;;;;;;;;;;;;-146.27;100.00;64033.13;5089710;28;20383;-37
2022/06/24 09:43:47;;;;;;;;;;;;;;;-146.27;100.00;64033.13;5089966;28;19919;-37
2022/06/24 09:46:16;;;;;;;;;;;;;;;-146.27;100.00;64033.13;5089815;28;19912;-36
2022/06/24 09:48:42;;;;;;;;;;;;;;;-146.27;100.00;64033.13;5090156;28;19916;-37
2022/06/24 09:51:08;;;;;;;;;;;;;;;-146.27;100.00;64033.13;5089810;28;19912;-37
2022/06/24 09:53:37;;;;;;;;;;;;;;;-146.27;100.00;64033.13;5090531;28;19947;-37
2022/06/24 09:56:03;;;;;;;;;;;;;;;-146.27;100.00;64033.13;5090500;28;19923;-38
2022/06/24 09:58:29;;;;;;;;;;;;;;;-146.27;100.00;64033.13;5094451;28;19918;-37
2022/06/24 10:00:54;;;;;;;;;;;;;;;-146.27;100.00;64033.13;5092567;28;20263;-38
2022/06/24 10:03:20;;;;;;;;;;;;;;;-146.27;100.00;64033.13;5094296;28;19989;-38
2022/06/24 10:05:46;;;;;;;;;;;;;;;-146.27;100.00;64033.13;5094127;28;19912;-37
2022/06/24 10:08:13;;;;;;;;;;;;;;;-146.27;100.00;64033.13;5094044;28;19916;-37
2022/06/24 10:10:41;;;;;;;;;;;;;;;-146.27;100.00;64033.13;5093829;28;19912;-38
2022/06/24 10:13:08;;;;;;;;;;;;;;;-146.27;100.00;64033.13;5093956;28;19962;-39
2022/06/24 10:15:34;;;;;;;;;;;;;;;-146.27;100.00;64033.13;5094012;28;19912;-38
2022/06/24 10:18:00;;;;;;;;;;;;;;;-146.27;100.00;64033.13;5094251;28;19912;-37
2022/06/24 10:20:26;;;;;;;;;;;;;;;-146.27;100.00;64033.13;5101817;28;19934;-36
2022/06/24 10:22:57;;;;;;;;;;;;;;;-146.27;100.00;64033.13;5113620;28;20383;-38
2022/06/24 10:25:42;;;;;;;;;;;;;;;-146.27;100.00;64033.13;5114211;28;20121;-38
2022/06/24 10:28:07;;;;;;;;;;;;;;;-146.27;100.00;64033.13;5113526;28;19917;-37
2022/06/24 10:30:39;;;;;;;;;;;;;;;-146.27;100.00;64033.13;5114544;28;19991;-38
2022/06/24 10:33:13;;;;;;;;;;;;;;;-146.27;100.00;64033.13;5105565;28;19916;-37
2022/06/24 10:35:53;;;;;;;;;;;;;;;-146.27;100.00;64033.13;5093273;28;20319;-38
2022/06/24 10:38:19;;;;;;;;;;;;;;;-146.27;100.00;64033.13;5093699;28;20477;-36
2022/06/24 10:40:45;;;;;;;;;;;;;;;-146.27;100.00;64033.13;5093807;28;19912;-37
2022/06/24 10:43:10;;;;;;;;;;;;;;;-146.27;100.00;64033.13;5092263;28;20316;-37
2022/06/24 10:45:37;;;;;;;;;;;;;;;-146.27;100.00;64033.13;5093451;28;20315;-38
2022/06/24 10:48:06;;;;;;;;;;;;;;;-146.27;100.00;64033.13;5093412;28;19916;-38
2022/06/24 10:50:31;;;;;;;;;;;;;;;-146.27;100.00;64033.13;5093775;28;19912;-38
2022/06/24 10:53:17;;;;;;;;;;;;;;;-146.27;100.00;64033.13;5093479;28;20010;-38
2022/06/24 10:55:42;;;;;;;;;;;;;;;-146.27;100.00;64033.13;5085243;28;19962;-37
2022/06/24 10:58:13;;;;;;;;;;;;;;;-146.27;100.00;64033.13;5093394;28;19916;-38
2022/06/24 11:00:48;;;;;;;;;;;;;;;-146.27;100.00;64033.13;5092354;28;19919;-36
2022/06/24 11:03:33;;;;;;;;;;;;;;;-146.27;100.00;64033.13;5092542;28;20307;-36
2022/06/24 11:05:59;;;;;;;;;;;;;;;-146.27;100.00;64033.13;5091275;28;20015;-37
2022/06/24 11:08:25;;;;;;;;;;;;;;;-146.27;100.00;64033.13;5092624;28;19923;-37
2022/06/24 11:10:51;;;;;;;;;;;;;;;-146.27;100.00;64033.13;5092452;28;19920;-38
2022/06/24 11:13:17;;;;;;;;;;;;;;;-146.27;100.00;64033.13;5092737;28;19912;-38
2022/06/24 11:15:43;;;;;;;;;;;;;;;-146.27;100.00;64033.13;5092226;28;19912;-39
2022/06/24 11:18:10;;;;;;;;;;;;;;;-146.27;100.00;64033.13;5092896;28;19912;-38
2022/06/24 11:20:40;;;;;;;;;;;;;;;-146.27;100.00;64033.13;5092485;28;20014;-38
2022/06/24 11:23:06;;;;;;;;;;;;;;;-146.27;100.00;64033.13;5092479;28;19912;-37
2022/06/24 11:25:32;;;;;;;;;;;;;;;-146.27;100.00;64033.13;5091906;28;20277;-38
2022/06/24 11:27:58;;;;;;;;;;;;;;;-146.27;100.00;64033.13;5092247;28;20431;-38
2022/06/24 11:30:23;;;;;;;;;;;;;;;-146.27;100.00;64033.13;5092737;28;19952;-37
2022/06/24 11:32:49;;;;;;;;;;;;;;;-146.27;100.00;64033.13;5092490;28;19972;-38
2022/06/24 11:35:18;;;;;;;;;;;;;;;-146.27;100.00;64033.13;5092241;28;19939;-39
2022/06/24 11:37:44;;;;;;;;;;;;;;;-146.27;100.00;64033.13;5092294;28;19919;-38
2022/06/24 11:40:10;;;;;;;;;;;;;;;-146.27;100.00;64033.13;5092039;28;19913;-37
2022/06/24 11:42:35;;;;;;;;;;;;;;;-146.27;100.00;64033.13;5092073;28;19931;-38
2022/06/24 11:45:00;;;;;;;;;;;;;;;-146.27;100.00;64033.13;5092364;28;20416;-37
2022/06/24 11:47:32;;;;;;;;;;;;;;;-146.27;100.00;64033.13;5091790;28;19923;-38
2022/06/24 11:49:57;;;;;;;;;;;;;;;-146.27;100.00;64033.13;5092358;28;19916;-38
2022/06/24 11:52:22;;;;;;;;;;;;;;;-146.27;100.00;64033.13;5091965;28;20419;-38
2022/06/24 11:54:48;;;;;;;;;;;;;;;-146.27;100.00;64033.13;5092120;28;20380;-38
2022/06/24 11:57:13;;;;;;;;;;;;;;;-146.27;100.00;64033.13;5092096;28;19942;-39
2022/06/24 11:59:39;;;;;;;;;;;;;;;-146.27;100.00;64033.13;5091542;28;19912;-38
2022/06/24 12:02:07;;;;;;;;;;;;;;;-146.27;100.00;64033.13;5091713;28;20015;-38
2022/06/24 12:04:32;;;;;;;;;;;;;;;-146.27;100.00;64033.13;5092011;28;19985;-37
2022/06/24 12:06:58;;;;;;;;;;;;;;;-146.27;100.00;64033.13;5091629;28;20376;-38
2022/06/24 12:09:23;;;;;;;;;;;;;;;-146.27;100.00;64033.13;5091227;28;19928;-38
2022/06/24 12:11:49;;;;;;;;;;;;;;;-146.27;100.00;64033.13;5091502;28;19912;-38
2022/06/24 12:14:15;;;;;;;;;;;;;;;-146.27;100.00;64033.13;5091486;28;19916;-37
2022/06/24 12:16:57;;;;;;;;;;;;;;;-146.27;100.00;64033.13;5091276;28;19916;-37
2022/06/24 12:19:29;;;;;;;;;;;;;;;-146.27;100.00;64033.13;5090500;28;19934;-38
2022/06/24 12:22:11;;;;;;;;;;;;;;;-146.27;100.00;64033.13;5111387;28;19989;-38
2022/06/24 12:24:37;;;;;;;;;;;;;;;-146.27;100.00;64033.13;5111956;28;19990;-38
2022/06/24 12:27:04;;;;;;;;;;;;;;;-146.27;100.00;64033.13;5111696;28;20034;-38